createdAt,value
2022-08-25T00:00:14.313Z,26.53
2022-08-25T00:02:48.501Z,26.53
2022-08-25T00:05:28.525Z,26.50
2022-08-25T00:07:57.429Z,26.47
2022-08-25T00:10:25.434Z,26.45
2022-08-25T00:12:53.143Z,26.42
2022-08-25T00:15:22.856Z,26.35
2022-08-25T00:17:50.581Z,26.32
2022-08-25T00:20:18.296Z,26.29
2022-08-25T00:22:47.410Z,26.24
2022-08-25T00:25:15.105Z,26.20
2022-08-25T00:27:43.706Z,26.15
2022-08-25T00:30:15.865Z,26.11
2022-08-25T00:32:43.757Z,26.08
2022-08-25T00:35:20.218Z,26.01
2022-08-25T00:37:49.244Z,25.96
2022-08-25T00:40:17.217Z,25.92
2022-08-25T00:42:44.941Z,25.89
2022-08-25T00:45:12.675Z,25.85
2022-08-25T00:47:41.386Z,25.81
2022-08-25T00:50:10.802Z,25.76
2022-08-25T00:52:40.106Z,25.74
2022-08-25T00:55:13.110Z,25.70
2022-08-25T00:57:44.598Z,25.70
2022-08-25T01:00:16.500Z,25.68
2022-08-25T01:02:45.085Z,25.64
2022-08-25T01:05:13.664Z,25.63
2022-08-25T01:07:42.453Z,25.61
2022-08-25T01:10:14.453Z,25.58
2022-08-25T01:12:42.684Z,25.56
2022-08-25T01:15:12.562Z,25.54
2022-08-25T01:17:47.453Z,25.54
2022-08-25T01:20:15.472Z,25.51
2022-08-25T01:22:44.854Z,25.50
2022-08-25T01:25:38.298Z,25.48
2022-08-25T01:28:06.731Z,25.47
2022-08-25T01:30:35.017Z,25.44
2022-08-25T01:33:04.659Z,25.41
2022-08-25T01:35:32.873Z,25.40
2022-08-25T01:38:02.055Z,25.37
2022-08-25T01:40:29.895Z,25.34
2022-08-25T01:43:03.683Z,25.32
2022-08-25T01:45:31.394Z,25.29
2022-08-25T01:47:59.143Z,25.28
2022-08-25T01:50:26.935Z,25.27
2022-08-25T01:52:57.328Z,25.22
2022-08-25T01:55:27.034Z,25.19
2022-08-25T01:57:54.782Z,25.16
2022-08-25T02:00:23.529Z,25.13
2022-08-25T02:02:52.183Z,25.09
2022-08-25T02:05:23.708Z,25.08
2022-08-25T02:07:52.054Z,25.04
2022-08-25T02:10:19.778Z,25.03
2022-08-25T02:12:50.343Z,25.01
2022-08-25T02:15:18.031Z,25.02
2022-08-25T02:17:45.767Z,25.02
2022-08-25T02:20:13.530Z,24.99
2022-08-25T02:22:41.226Z,24.99
2022-08-25T02:25:17.075Z,24.99
2022-08-25T02:27:45.586Z,24.98
2022-08-25T02:30:15.971Z,24.97
2022-08-25T02:32:43.759Z,24.95
2022-08-25T02:35:12.073Z,24.93
2022-08-25T02:37:39.720Z,24.91
2022-08-25T02:40:08.842Z,24.88
2022-08-25T02:42:36.669Z,24.86
2022-08-25T02:45:05.007Z,24.83
2022-08-25T02:47:34.059Z,24.80
2022-08-25T02:50:01.705Z,24.78
2022-08-25T02:52:29.385Z,24.76
2022-08-25T02:54:57.187Z,24.75
2022-08-25T02:57:24.921Z,24.73
2022-08-25T02:59:52.923Z,24.66
2022-08-25T03:02:20.660Z,24.67
2022-08-25T03:04:50.443Z,24.67
2022-08-25T03:07:18.455Z,24.66
2022-08-25T03:09:49.612Z,24.63
2022-08-25T03:12:17.323Z,24.62
2022-08-25T03:14:45.531Z,24.59
2022-08-25T03:17:14.369Z,24.58
2022-08-25T03:19:42.120Z,24.56
2022-08-25T03:22:11.210Z,24.55
2022-08-25T03:24:38.886Z,24.53
2022-08-25T03:27:05.895Z,24.52
2022-08-25T03:29:34.449Z,24.53
2022-08-25T03:32:02.505Z,24.53
2022-08-25T03:34:31.320Z,24.52
2022-08-25T03:36:59.352Z,24.52
2022-08-25T03:39:29.028Z,24.52
2022-08-25T03:41:56.756Z,24.51
2022-08-25T03:44:24.434Z,24.49
2022-08-25T03:46:53.252Z,24.46
2022-08-25T03:49:23.880Z,24.41
2022-08-25T03:51:53.148Z,24.37
2022-08-25T03:54:22.941Z,24.34
2022-08-25T03:56:52.162Z,24.31
2022-08-25T03:59:20.071Z,24.33
2022-08-25T04:01:54.037Z,24.28
2022-08-25T04:04:22.760Z,24.28
2022-08-25T04:06:50.826Z,24.25
2022-08-25T04:09:18.522Z,24.24
2022-08-25T04:11:46.511Z,24.19
2022-08-25T04:14:18.506Z,24.16
2022-08-25T04:16:46.480Z,24.15
2022-08-25T04:19:14.724Z,24.15
2022-08-25T04:21:43.000Z,24.13
2022-08-25T04:24:12.699Z,24.12
2022-08-25T04:26:42.719Z,24.11
2022-08-25T04:29:11.347Z,24.11
2022-08-25T04:31:42.882Z,24.10
2022-08-25T04:34:14.794Z,24.10
2022-08-25T04:36:59.025Z,24.10
2022-08-25T04:39:26.709Z,24.11
2022-08-25T04:41:54.333Z,24.10
2022-08-25T04:44:21.960Z,24.11
2022-08-25T04:46:51.082Z,24.10
2022-08-25T04:49:18.787Z,24.09
2022-08-25T04:51:46.917Z,24.10
2022-08-25T04:54:17.043Z,24.10
2022-08-25T04:56:45.020Z,24.09
2022-08-25T04:59:14.741Z,24.07
2022-08-25T05:01:42.718Z,24.07
2022-08-25T05:04:14.665Z,24.11
2022-08-25T05:06:55.703Z,24.11
2022-08-25T05:09:23.379Z,24.10
2022-08-25T05:11:52.858Z,24.12
2022-08-25T05:14:25.741Z,24.11
2022-08-25T05:16:54.525Z,24.13
2022-08-25T05:19:24.553Z,24.15
2022-08-25T05:21:52.620Z,24.16
2022-08-25T05:24:20.700Z,24.17
2022-08-25T05:26:48.482Z,24.17
2022-08-25T05:29:16.431Z,24.19
2022-08-25T05:31:50.102Z,24.19
2022-08-25T05:34:19.470Z,24.17
2022-08-25T05:36:49.088Z,24.20
2022-08-25T05:39:16.907Z,24.19
2022-08-25T05:41:44.943Z,24.21
2022-08-25T05:44:15.894Z,24.21
2022-08-25T05:46:45.617Z,24.23
2022-08-25T05:49:13.261Z,24.24
2022-08-25T05:51:40.901Z,24.29
2022-08-25T05:54:09.942Z,24.29
2022-08-25T05:56:37.629Z,24.30
2022-08-25T05:59:09.273Z,24.31
2022-08-25T06:01:55.050Z,24.33
2022-08-25T06:04:23.053Z,24.38
2022-08-25T06:06:53.860Z,24.44
2022-08-25T06:09:23.081Z,24.46
2022-08-25T06:11:54.754Z,24.42
2022-08-25T06:14:23.184Z,24.48
2022-08-25T06:16:51.551Z,24.52
2022-08-25T06:19:19.565Z,24.53
2022-08-25T06:21:47.377Z,24.53
2022-08-25T06:24:15.804Z,24.59
2022-08-25T06:26:45.096Z,24.64
2022-08-25T06:29:14.047Z,24.69
2022-08-25T06:31:42.489Z,24.73
2022-08-25T06:34:10.375Z,24.72
2022-08-25T06:36:38.047Z,24.79
2022-08-25T06:39:05.766Z,24.83
2022-08-25T06:41:36.608Z,24.85
2022-08-25T06:44:06.847Z,24.87
2022-08-25T06:46:36.243Z,24.88
2022-08-25T06:49:05.466Z,24.94
2022-08-25T06:51:35.957Z,24.99
2022-08-25T06:54:04.652Z,25.03
2022-08-25T06:56:32.396Z,25.06
2022-08-25T06:59:01.692Z,25.10
2022-08-25T07:01:31.943Z,25.15
2022-08-25T07:04:02.274Z,25.20
2022-08-25T07:06:32.579Z,25.23
2022-08-25T07:09:00.708Z,25.28
2022-08-25T07:11:29.316Z,25.30
2022-08-25T07:13:57.035Z,25.34
2022-08-25T07:16:29.637Z,25.44
2022-08-25T07:19:00.489Z,25.49
2022-08-25T07:21:33.131Z,25.54
2022-08-25T07:24:03.532Z,25.61
2022-08-25T07:26:37.695Z,25.68
2022-08-25T07:29:09.415Z,25.70
2022-08-25T07:31:37.562Z,25.78
2022-08-25T07:34:25.511Z,25.84
2022-08-25T07:36:53.507Z,25.91
2022-08-25T07:39:22.029Z,25.99
2022-08-25T07:41:51.891Z,26.06
2022-08-25T07:44:20.876Z,26.10
2022-08-25T07:46:50.304Z,26.17
2022-08-25T07:49:23.112Z,26.25
2022-08-25T07:52:04.995Z,26.32
2022-08-25T07:54:35.099Z,26.39
2022-08-25T07:57:03.387Z,26.46
2022-08-25T07:59:31.081Z,26.53
2022-08-25T08:02:08.491Z,26.62
2022-08-25T08:04:38.844Z,26.70
2022-08-25T08:07:12.209Z,26.79
2022-08-25T08:09:40.014Z,26.88
2022-08-25T08:12:09.072Z,26.93
2022-08-25T08:14:36.677Z,27.01
2022-08-25T08:17:13.619Z,27.07
2022-08-25T08:19:45.359Z,27.16
2022-08-25T08:22:15.704Z,27.21
2022-08-25T08:24:54.415Z,27.27
2022-08-25T08:27:24.339Z,27.31
2022-08-25T08:29:52.207Z,27.40
2022-08-25T08:32:20.021Z,27.45
2022-08-25T08:34:54.352Z,27.56
2022-08-25T08:37:22.952Z,27.65
2022-08-25T08:39:52.555Z,27.70
2022-08-25T08:42:36.770Z,27.78
2022-08-25T08:45:28.476Z,27.86
2022-08-25T08:48:16.529Z,27.90
2022-08-25T08:51:00.345Z,27.97
2022-08-25T08:53:34.294Z,28.05
2022-08-25T08:56:05.800Z,28.12
2022-08-25T08:58:39.484Z,28.20
2022-08-25T09:01:10.081Z,28.27
2022-08-25T09:03:40.782Z,28.31
2022-08-25T09:06:13.619Z,28.34
2022-08-25T09:08:44.798Z,28.44
2022-08-25T09:11:19.469Z,28.53
2022-08-25T09:14:01.899Z,28.61
2022-08-25T09:16:56.173Z,28.67
2022-08-25T09:19:34.769Z,28.67
2022-08-25T09:22:33.477Z,28.70
2022-08-25T09:25:08.658Z,28.76
2022-08-25T09:27:41.986Z,28.83
2022-08-25T09:30:11.922Z,28.88
2022-08-25T09:32:42.519Z,28.93
2022-08-25T09:35:21.008Z,29.04
2022-08-25T09:38:01.531Z,29.12
2022-08-25T09:40:31.465Z,29.19
2022-08-25T09:43:01.660Z,29.27
2022-08-25T09:45:42.759Z,29.33
2022-08-25T09:48:25.971Z,29.43
2022-08-25T09:50:55.693Z,29.46
2022-08-25T09:53:24.856Z,29.46
2022-08-25T09:56:00.161Z,29.51
2022-08-25T09:58:28.627Z,29.60
2022-08-25T10:01:14.434Z,29.70
2022-08-25T10:04:00.659Z,29.77
2022-08-25T10:06:30.360Z,29.80
2022-08-25T10:09:02.933Z,29.79
2022-08-25T10:11:41.568Z,29.83
2022-08-25T10:14:18.725Z,29.90
2022-08-25T10:16:47.867Z,29.94
2022-08-25T10:19:25.088Z,29.95
2022-08-25T10:22:05.898Z,29.99
2022-08-25T10:24:35.101Z,30.00
2022-08-25T10:27:10.420Z,30.05
2022-08-25T10:30:04.497Z,30.18
2022-08-25T10:32:47.609Z,30.25
2022-08-25T10:35:19.580Z,30.35
2022-08-25T10:37:58.298Z,30.44
2022-08-25T10:40:32.669Z,30.48
2022-08-25T10:43:07.873Z,30.52
2022-08-25T10:45:44.998Z,30.60
2022-08-25T10:48:26.097Z,30.62
2022-08-25T10:50:56.884Z,30.70
2022-08-25T10:53:29.447Z,30.83
2022-08-25T10:56:07.385Z,30.89
2022-08-25T10:59:01.441Z,30.84
2022-08-25T11:01:44.081Z,30.78
2022-08-25T11:04:15.611Z,30.78
2022-08-25T11:06:50.259Z,30.70
2022-08-25T11:09:24.185Z,30.74
2022-08-25T11:11:55.059Z,30.89
2022-08-25T11:14:25.854Z,30.91
2022-08-25T11:16:58.890Z,31.00
2022-08-25T11:19:32.743Z,30.96
2022-08-25T11:22:06.051Z,31.04
2022-08-25T11:24:42.313Z,31.14
2022-08-25T11:27:17.753Z,31.29
2022-08-25T11:29:57.519Z,31.41
2022-08-25T11:32:25.510Z,31.51
2022-08-25T11:34:54.073Z,31.60
2022-08-25T11:37:25.615Z,31.66
2022-08-25T11:40:17.266Z,31.64
2022-08-25T11:43:15.685Z,31.70
2022-08-25T11:46:07.780Z,31.68
2022-08-25T11:48:42.450Z,31.78
2022-08-25T11:51:11.524Z,31.84
2022-08-25T11:53:41.765Z,31.88
2022-08-25T11:56:12.825Z,31.99
2022-08-25T11:58:49.705Z,32.15
2022-08-25T12:02:09.976Z,32.19
2022-08-25T12:04:45.141Z,32.23
2022-08-25T12:07:26.133Z,32.30
2022-08-25T12:10:10.026Z,32.32
2022-08-25T12:12:39.723Z,32.24
2022-08-25T12:15:21.945Z,32.25
2022-08-25T12:18:11.399Z,32.21
2022-08-25T12:21:13.005Z,32.14
2022-08-25T12:23:44.876Z,32.03
2022-08-25T12:26:20.344Z,32.09
2022-08-25T12:28:54.649Z,32.26
2022-08-25T12:31:31.611Z,32.37
2022-08-25T12:34:10.562Z,32.37
2022-08-25T12:36:40.317Z,32.26
2022-08-25T12:39:19.792Z,32.22
2022-08-25T12:41:59.672Z,32.25
2022-08-25T12:44:43.989Z,32.33
2022-08-25T12:47:31.716Z,32.51
2022-08-25T12:50:28.970Z,32.73
2022-08-25T12:53:01.940Z,32.89
2022-08-25T12:55:29.946Z,33.03
2022-08-25T12:58:00.852Z,33.07
2022-08-25T13:00:30.353Z,33.08
2022-08-25T13:03:26.999Z,33.08
2022-08-25T13:06:11.342Z,33.11
2022-08-25T13:08:56.302Z,33.15
2022-08-25T13:11:28.292Z,33.21
2022-08-25T13:14:05.390Z,33.16
2022-08-25T13:16:33.822Z,33.03
2022-08-25T13:19:06.871Z,32.99
2022-08-25T13:21:38.922Z,33.08
2022-08-25T13:24:08.522Z,33.22
2022-08-25T13:26:48.226Z,33.31
2022-08-25T13:29:20.876Z,33.31
2022-08-25T13:31:54.912Z,33.36
2022-08-25T13:34:34.458Z,33.43
2022-08-25T13:37:24.879Z,33.46
2022-08-25T13:39:56.506Z,33.51
2022-08-25T13:42:27.444Z,33.54
2022-08-25T13:44:56.945Z,33.42
2022-08-25T13:47:34.241Z,33.38
2022-08-25T13:50:22.789Z,33.28
2022-08-25T13:52:55.924Z,33.07
2022-08-25T13:55:27.784Z,33.02
2022-08-25T13:57:57.873Z,33.05
2022-08-25T14:00:32.665Z,33.19
2022-08-25T14:03:01.171Z,33.29
2022-08-25T14:05:38.421Z,33.35
2022-08-25T14:08:23.602Z,33.28
2022-08-25T14:11:03.797Z,33.13
2022-08-25T14:13:33.499Z,33.13
2022-08-25T14:16:11.104Z,33.19
2022-08-25T14:18:39.444Z,33.30
2022-08-25T14:21:12.022Z,33.40
2022-08-25T14:23:40.298Z,33.48
2022-08-25T14:26:07.950Z,33.54
2022-08-25T14:28:35.651Z,33.64
2022-08-25T14:31:08.242Z,33.57
2022-08-25T14:33:38.863Z,33.55
2022-08-25T14:36:08.221Z,33.53
2022-08-25T14:38:38.938Z,33.50
2022-08-25T14:43:41.491Z,33.63
2022-08-25T14:46:19.546Z,33.66
2022-08-25T14:48:49.055Z,33.69
2022-08-25T14:51:17.469Z,33.70
2022-08-25T14:53:46.523Z,33.70
2022-08-25T14:56:14.373Z,33.71
2022-08-25T14:58:51.596Z,33.66
2022-08-25T15:01:29.323Z,33.54
2022-08-25T15:04:01.442Z,33.43
2022-08-25T15:06:29.711Z,33.34
2022-08-25T15:09:11.541Z,33.33
2022-08-25T15:11:42.277Z,33.30
2022-08-25T15:14:11.081Z,33.31
2022-08-25T15:16:42.946Z,33.35
2022-08-25T15:19:14.443Z,33.37
2022-08-25T15:21:43.990Z,33.40
2022-08-25T15:24:17.535Z,33.43
2022-08-25T15:29:23.269Z,33.44
2022-08-25T15:31:51.353Z,33.42
2022-08-25T15:34:19.297Z,33.39
2022-08-25T15:36:47.524Z,33.38
2022-08-25T15:39:18.069Z,33.35
2022-08-25T15:41:48.236Z,33.34
2022-08-25T15:44:17.575Z,33.32
2022-08-25T15:46:47.176Z,33.33
2022-08-25T15:49:23.081Z,33.32
2022-08-25T15:51:51.362Z,33.30
2022-08-25T15:54:20.761Z,33.27
2022-08-25T15:56:48.499Z,33.28
2022-08-25T15:59:16.448Z,33.28
2022-08-25T16:01:44.650Z,33.25
2022-08-25T16:04:14.428Z,33.26
2022-08-25T16:06:42.181Z,33.25
2022-08-25T16:09:10.052Z,33.15
2022-08-25T16:11:39.103Z,33.15
2022-08-25T16:14:07.123Z,33.12
2022-08-25T16:16:34.906Z,33.06
2022-08-25T16:19:04.769Z,33.01
2022-08-25T16:21:35.455Z,32.94
2022-08-25T16:24:07.826Z,32.89
2022-08-25T16:26:37.657Z,32.81
2022-08-25T16:29:15.539Z,32.76
2022-08-25T16:31:44.430Z,32.71
2022-08-25T16:34:12.250Z,32.63
2022-08-25T16:36:40.038Z,32.55
2022-08-25T16:39:09.924Z,32.50
2022-08-25T16:41:37.765Z,32.47
2022-08-25T16:44:11.008Z,32.41
2022-08-25T16:46:41.815Z,32.42
2022-08-25T16:49:13.392Z,32.38
2022-08-25T16:51:41.587Z,32.37
2022-08-25T16:54:29.639Z,32.33
2022-08-25T16:56:57.468Z,32.31
2022-08-25T16:59:26.178Z,32.29
2022-08-25T17:01:55.608Z,32.24
2022-08-25T17:04:29.500Z,32.20
2022-08-25T17:07:00.366Z,32.16
2022-08-25T17:09:29.760Z,32.12
2022-08-25T17:11:57.740Z,32.09
2022-08-25T17:14:25.582Z,32.06
2022-08-25T17:16:54.969Z,32.00
2022-08-25T17:19:24.916Z,31.95
2022-08-25T17:21:54.434Z,31.96
2022-08-25T17:24:29.537Z,31.92
2022-08-25T17:26:59.618Z,31.90
2022-08-25T17:29:29.148Z,31.86
2022-08-25T17:31:57.518Z,31.83
2022-08-25T17:34:27.072Z,31.79
2022-08-25T17:36:55.620Z,31.76
2022-08-25T17:39:24.227Z,31.73
2022-08-25T17:41:52.958Z,31.69
2022-08-25T17:44:20.925Z,31.67
2022-08-25T17:46:49.294Z,31.61
2022-08-25T17:49:17.239Z,31.56
2022-08-25T17:51:46.267Z,31.51
2022-08-25T17:54:14.095Z,31.44
2022-08-25T17:56:42.440Z,31.41
2022-08-25T17:59:11.746Z,31.37
2022-08-25T18:01:41.166Z,31.31
2022-08-25T18:04:17.693Z,31.28
2022-08-25T18:06:47.581Z,31.22
2022-08-25T18:09:15.326Z,31.19
2022-08-25T18:11:43.088Z,31.13
2022-08-25T18:14:11.245Z,31.07
2022-08-25T18:16:39.095Z,31.01
2022-08-25T18:19:09.760Z,30.95
2022-08-25T18:21:38.041Z,30.91
2022-08-25T18:24:07.949Z,30.87
2022-08-25T18:26:35.837Z,30.83
2022-08-25T18:29:03.552Z,30.78
2022-08-25T18:31:31.325Z,30.70
2022-08-25T18:33:59.959Z,30.68
2022-08-25T18:36:28.258Z,30.62
2022-08-25T18:39:13.768Z,30.57
2022-08-25T18:41:44.901Z,30.52
2022-08-25T18:44:15.412Z,30.47
2022-08-25T18:46:43.532Z,30.40
2022-08-25T18:49:15.676Z,30.36
2022-08-25T18:51:44.734Z,30.30
2022-08-25T18:54:23.005Z,30.26
2022-08-25T18:56:53.216Z,30.21
2022-08-25T18:59:23.664Z,30.15
2022-08-25T19:01:52.671Z,30.11
2022-08-25T19:04:20.676Z,30.03
2022-08-25T19:06:56.185Z,29.98
2022-08-25T19:09:23.921Z,29.93
2022-08-25T19:11:54.710Z,29.87
2022-08-25T19:14:23.118Z,29.81
2022-08-25T19:16:54.377Z,29.75
2022-08-25T19:19:22.098Z,29.70
2022-08-25T19:21:50.854Z,29.66
2022-08-25T19:24:19.246Z,29.60
2022-08-25T19:26:50.410Z,29.53
2022-08-25T19:29:24.535Z,29.49
2022-08-25T19:31:52.252Z,29.46
2022-08-25T19:34:25.307Z,29.43
2022-08-25T19:36:56.299Z,29.39
2022-08-25T19:39:24.294Z,29.37
2022-08-25T19:41:52.574Z,29.33
2022-08-25T19:44:21.361Z,29.27
2022-08-25T19:46:51.337Z,29.22
2022-08-25T19:49:22.770Z,29.17
2022-08-25T19:51:52.386Z,29.12
2022-08-25T19:54:24.503Z,29.07
2022-08-25T19:56:55.002Z,28.99
2022-08-25T19:59:24.602Z,28.95
2022-08-25T20:01:53.824Z,28.92
2022-08-25T20:04:24.674Z,28.88
2022-08-25T20:06:52.689Z,28.83
2022-08-25T20:09:39.259Z,28.76
2022-08-25T20:12:10.335Z,28.71
2022-08-25T20:14:38.490Z,28.58
2022-08-25T20:17:14.486Z,28.63
2022-08-25T20:19:52.382Z,28.62
2022-08-25T20:22:24.985Z,28.57
2022-08-25T20:24:56.143Z,28.52
2022-08-25T20:27:29.010Z,28.50
2022-08-25T20:29:56.894Z,28.48
2022-08-25T20:32:26.162Z,28.43
2022-08-25T20:34:56.928Z,28.41
2022-08-25T20:37:25.716Z,28.36
2022-08-25T20:39:53.510Z,28.29
2022-08-25T20:42:21.175Z,28.26
2022-08-25T20:44:48.877Z,28.20
2022-08-25T20:47:20.400Z,28.12
2022-08-25T20:49:50.296Z,28.12
2022-08-25T20:52:18.561Z,28.11
2022-08-25T20:54:46.948Z,28.08
2022-08-25T20:57:17.367Z,28.03
2022-08-25T20:59:45.101Z,27.98
2022-08-25T21:02:13.961Z,27.95
2022-08-25T21:04:48.946Z,27.92
2022-08-25T21:07:19.730Z,27.88
2022-08-25T21:09:48.743Z,27.84
2022-08-25T21:12:16.817Z,27.82
2022-08-25T21:14:44.589Z,27.80
2022-08-25T21:17:13.612Z,27.77
2022-08-25T21:19:41.778Z,27.75
2022-08-25T21:22:10.836Z,27.68
2022-08-25T21:24:40.009Z,27.70
2022-08-25T21:27:08.259Z,27.67
2022-08-25T21:29:36.367Z,27.63
2022-08-25T21:32:04.518Z,27.61
2022-08-25T21:34:32.330Z,27.57
2022-08-25T21:37:00.359Z,27.52
2022-08-25T21:39:32.073Z,27.48
2022-08-25T21:42:01.740Z,27.42
2022-08-25T21:44:30.595Z,27.39
2022-08-25T21:46:58.317Z,27.35
2022-08-25T21:49:26.156Z,27.35
2022-08-25T21:52:04.350Z,27.34
2022-08-25T21:54:32.741Z,27.31
2022-08-25T21:57:04.813Z,27.25
2022-08-25T21:59:34.758Z,27.22
2022-08-25T22:02:03.858Z,27.21
2022-08-25T22:04:32.580Z,27.17
2022-08-25T22:07:00.513Z,27.12
2022-08-25T22:09:29.197Z,27.07
2022-08-25T22:11:57.154Z,27.04
2022-08-25T22:14:30.442Z,27.02
2022-08-25T22:16:58.093Z,26.98
2022-08-25T22:19:26.898Z,27.00
2022-08-25T22:21:54.620Z,27.00
2022-08-25T22:24:22.393Z,26.99
2022-08-25T22:26:50.822Z,26.95
2022-08-25T22:29:23.627Z,26.94
2022-08-25T22:31:59.991Z,26.89
2022-08-25T22:34:32.335Z,26.79
2022-08-25T22:37:00.622Z,26.63
2022-08-25T22:39:29.190Z,26.43
2022-08-25T22:41:56.813Z,26.29
2022-08-25T22:44:25.069Z,26.22
2022-08-25T22:46:54.383Z,26.17
2022-08-25T22:49:22.109Z,26.16
2022-08-25T22:51:49.927Z,26.16
2022-08-25T22:54:18.661Z,26.16
2022-08-25T22:56:46.368Z,26.15
2022-08-25T22:59:15.375Z,26.08
2022-08-25T23:01:44.885Z,25.99
2022-08-25T23:04:14.829Z,25.94
2022-08-25T23:06:42.957Z,25.83
2022-08-25T23:09:11.263Z,25.79
2022-08-25T23:11:39.428Z,25.74
2022-08-25T23:14:10.233Z,25.67
2022-08-25T23:16:38.325Z,25.62
2022-08-25T23:19:06.159Z,25.57
2022-08-25T23:21:53.809Z,25.56
2022-08-25T23:24:29.175Z,25.51
2022-08-25T23:26:58.180Z,25.48
2022-08-25T23:29:25.793Z,25.44
2022-08-25T23:31:53.729Z,25.38
2022-08-25T23:34:21.714Z,25.27
2022-08-25T23:36:51.327Z,25.24
2022-08-25T23:39:18.969Z,25.21
2022-08-25T23:41:49.677Z,25.14
2022-08-25T23:44:17.829Z,25.11
2022-08-25T23:46:47.310Z,25.08
2022-08-25T23:49:18.554Z,25.04
2022-08-25T23:51:48.649Z,25.02
2022-08-25T23:54:20.076Z,24.98
2022-08-25T23:56:51.929Z,24.96
2022-08-25T23:59:24.229Z,24.89
